Angel Fire, NM (87710)

10:46 AM MST on February 11, 2016 (GMT -0700)
NW face of Angel Fire Ski Mountain | | Change Station
CLOSE
Current Station
Personal Weather Station
Location: Angel Fire, NM
Elevation: 8907 ft
Nearby Weather Stations

Elev 8907 ft 36.39 °N, 105.26 °W | Updated 9 minutes ago

Clear
Clear
42.7 °F
Feels Like 43 °F
N
0.0
Wind Variable Wind from North
Gusts 1.0 mph

Today
High -- | Low -- °F
--% Chance of Precip.
Yesterday
High -- | Low -- °F
Precip. -- in
Pressure 30.40 in
Visibility 10.0 miles
Clouds Clear
Windchill 43 °F
Dew Point 7 °F
Humidity 23%
Rainfall 0.00 in
Snow Depth Not available.
6:53 AM 5:37 PM
Waxing Crescent, 13% visible
METAR KAXX 111735Z AUTO 00000KT 10SM CLR M04/M09 A3040 RMK AO2 T10411093
Pressure 30.40 in
Visibility 10.0 miles
Clouds Clear
Windchill 43 °F
Dew Point 7 °F
Humidity 23%
Rainfall 0.00 in
Snow Depth Not available.
6:53 AM 5:37 PM
Waxing Crescent, 13% visible
METAR KAXX 111735Z AUTO 00000KT 10SM CLR M04/M09 A3040 RMK AO2 T10411093

10-Day Weather Forecast

Almanac

Astronomy

Feb. 11, 2016 Rise Set
Actual Time
Civil Twilight
Nautical Twilight
Astronomical Twilight
Moon
Length of Visible Light
Length of Day
Tomorrow will be .
, % of the Moon is Illuminated

Today's Extremes

State Highs State Lows

Community

WunderPhotos

Upload Photos

1,892,113 photos uploaded!

WunderBlog® & News

Nearby

Air Quality

  Air Quality AQ Index Pollutant
Not available.

Snow Depth

Station Depth Elevation

Earthquake Activity

City Distance Mag. Time & Date
Minimum magnitude displayed is 2.5.

Coastal Water Temperatures

Place Temperature

Stations

Nearby Weather Stations

Station Location Temp. Windchill Dew Point Humidity Wind Precip. Elev Updated Type
                   

Watches & Warnings

There are currently no watches in effect.